NCAR-RAP Real-Time Weather Data

Output produced by METARs form (08 May 2021  01:55 UTC)
found at http://weather.rap.ucar.edu/surface/
 
KCEC 080056Z AUTO 33023G34KT 6SM HZ CLR 11/06 A3029 RMK AO2 PK WND 32034/0033 SLP256 T01110061
KCEC 072356Z AUTO 33023G31KT 6SM HZ CLR 12/06 A3028 RMK AO2 PK WND 32034/2320 SLP254 T01220061 10133 20122 58008
KCEC 072256Z AUTO 33021G32KT 6SM HZ CLR 12/06 A3028 RMK AO2 PK WND 32032/2256 SLP256 T01220061
KCEC 072156Z AUTO 33023G34KT 7SM CLR 13/07 A3030 RMK AO2 PK WND 33034/2148 SLP261 T01280072
KCEC 072056Z AUTO 33022G28KT 7SM CLR 13/07 A3030 RMK AO2 PK WND 33031/2041 SLP262 T01280072 51000
KCEC 071956Z AUTO 32020G28KT 7SM CLR 13/08 A3030 RMK AO2 PK WND 32029/1922 SLP262 T01280078
KCEC 071856Z AUTO 33019G26KT 7SM CLR 13/07 A3031 RMK AO2 PK WND 33027/1840 SLP263 T01280072
KCEC 071756Z AUTO 32016G23KT 7SM CLR 13/07 A3030 RMK AO2 SLP262 T01280072 10128 20083 51002
KCEC 071656Z AUTO 33013G20KT 7SM CLR 12/07 A3030 RMK AO2 SLP262 T01220072
KCEC 071556Z AUTO 34011KT 7SM CLR 11/07 A3030 RMK AO2 SLP260 T01110067
KCEC 071456Z AUTO 36009KT 6SM HZ CLR 10/07 A3030 RMK AO2 SLP260 T01000067 53011
KCEC 071356Z AUTO 03006KT 7SM CLR 08/06 A3028 RMK AO2 SLP255 T00830056
KCEC 071256Z AUTO 02006KT 8SM CLR 08/06 A3027 RMK AO2 SLP250 T00830056